Terminal Aerodrome Forecast
Issued by NWS Newport/Morehead City, NC

Home | Current Version | Previous Version | Text Only | Print | Product List | Glossary Off
Versions: 1 2 3 4 5 6 7 8 9 10 11 12 13 14

000
FTUS42 KMHX 211000 AAC
TAFEWN
TAF AMD
KEWN 211006Z 2110/2206 00000KT P6SM BKN120
      TEMPO 2110/2112 4SM BR SCT003
     FM211300 08005KT P6SM SCT020 BKN100
     FM211600 09006KT P6SM VCTS SCT030CB BKN100
     FM220000 10003KT P6SM SCT025 BKN040=

USA.gov is the U.S. government's official web portal to all federal, state and local government web resources and services.